sensor_id;sensor_type;location;lat;lon;timestamp;P1;durP1;ratioP1;P2;durP2;ratioP2
62696;SDS011;48761;42.680;23.312;2023-05-10T00:01:52;13.40;;;9.48;;
62696;SDS011;48761;42.680;23.312;2023-05-10T00:04:18;17.60;;;9.32;;
62696;SDS011;48761;42.680;23.312;2023-05-10T00:06:44;14.77;;;9.90;;
62696;SDS011;48761;42.680;23.312;2023-05-10T00:09:10;13.98;;;9.88;;
62696;SDS011;48761;42.680;23.312;2023-05-10T00:11:36;11.48;;;8.82;;
62696;SDS011;48761;42.680;23.312;2023-05-10T00:14:02;12.40;;;9.30;;
62696;SDS011;48761;42.680;23.312;2023-05-10T00:16:28;12.73;;;8.98;;
62696;SDS011;48761;42.680;23.312;2023-05-10T00:18:54;10.95;;;8.25;;
62696;SDS011;48761;42.680;23.312;2023-05-10T00:21:20;13.30;;;10.02;;
62696;SDS011;48761;42.680;23.312;2023-05-10T00:23:46;12.30;;;9.30;;
62696;SDS011;48761;42.680;23.312;2023-05-10T00:26:12;12.32;;;10.10;;
62696;SDS011;48761;42.680;23.312;2023-05-10T00:28:37;13.65;;;10.73;;
62696;SDS011;48761;42.680;23.312;2023-05-10T00:31:03;14.50;;;11.60;;
62696;SDS011;48761;42.680;23.312;2023-05-10T00:33:29;15.80;;;10.98;;
62696;SDS011;48761;42.680;23.312;2023-05-10T00:35:55;13.02;;;11.02;;
62696;SDS011;48761;42.680;23.312;2023-05-10T00:38:21;14.57;;;10.32;;
62696;SDS011;48761;42.680;23.312;2023-05-10T00:40:47;15.70;;;11.45;;
62696;SDS011;48761;42.680;23.312;2023-05-10T00:43:13;16.15;;;11.30;;
62696;SDS011;48761;42.680;23.312;2023-05-10T00:45:39;17.50;;;12.55;;
62696;SDS011;48761;42.680;23.312;2023-05-10T00:48:06;14.32;;;11.15;;
62696;SDS011;48761;42.680;23.312;2023-05-10T00:50:32;16.05;;;11.75;;
62696;SDS011;48761;42.680;23.312;2023-05-10T00:52:59;16.52;;;12.75;;
62696;SDS011;48761;42.680;23.312;2023-05-10T00:55:26;16.17;;;12.40;;
62696;SDS011;48761;42.680;23.312;2023-05-10T00:57:52;17.85;;;13.50;;
62696;SDS011;48761;42.680;23.312;2023-05-10T01:00:19;17.58;;;14.45;;
62696;SDS011;48761;42.680;23.312;2023-05-10T01:02:45;19.85;;;13.75;;
62696;SDS011;48761;42.680;23.312;2023-05-10T01:05:12;18.98;;;14.93;;
62696;SDS011;48761;42.680;23.312;2023-05-10T01:07:38;15.63;;;12.57;;
62696;SDS011;48761;42.680;23.312;2023-05-10T01:10:05;18.33;;;13.40;;
62696;SDS011;48761;42.680;23.312;2023-05-10T01:12:32;15.25;;;12.88;;
62696;SDS011;48761;42.680;23.312;2023-05-10T01:15:02;16.20;;;12.27;;
62696;SDS011;48761;42.680;23.312;2023-05-10T01:17:29;18.10;;;13.45;;
62696;SDS011;48761;42.680;23.312;2023-05-10T01:19:56;13.40;;;11.30;;
62696;SDS011;48761;42.680;23.312;2023-05-10T01:33:29;15.55;;;11.07;;
62696;SDS011;48761;42.680;23.312;2023-05-10T01:36:32;16.00;;;12.50;;
62696;SDS011;48761;42.680;23.312;2023-05-10T01:39:08;12.75;;;10.68;;
62696;SDS011;48761;42.680;23.312;2023-05-10T01:44:31;13.55;;;10.45;;
62696;SDS011;48761;42.680;23.312;2023-05-10T01:47:02;10.70;;;9.48;;
62696;SDS011;48761;42.680;23.312;2023-05-10T01:49:38;11.52;;;8.35;;
62696;SDS011;48761;42.680;23.312;2023-05-10T01:52:09;11.57;;;7.60;;
62696;SDS011;48761;42.680;23.312;2023-05-10T01:54:41;7.60;;;6.68;;
62696;SDS011;48761;42.680;23.312;2023-05-10T01:57:10;10.60;;;8.10;;
62696;SDS011;48761;42.680;23.312;2023-05-10T01:59:38;8.95;;;7.70;;
62696;SDS011;48761;42.680;23.312;2023-05-10T02:02:08;7.65;;;6.38;;
62696;SDS011;48761;42.680;23.312;2023-05-10T02:04:36;7.32;;;6.63;;
62696;SDS011;48761;42.680;23.312;2023-05-10T02:07:04;7.70;;;6.63;;
62696;SDS011;48761;42.680;23.312;2023-05-10T02:09:31;8.82;;;7.05;;
62696;SDS011;48761;42.680;23.312;2023-05-10T02:11:59;7.63;;;6.60;;
62696;SDS011;48761;42.680;23.312;2023-05-10T02:14:29;9.55;;;6.18;;
62696;SDS011;48761;42.680;23.312;2023-05-10T02:16:58;8.15;;;6.25;;
62696;SDS011;48761;42.680;23.312;2023-05-10T02:19:25;8.90;;;6.18;;
62696;SDS011;48761;42.680;23.312;2023-05-10T02:21:55;7.10;;;5.18;;
62696;SDS011;48761;42.680;23.312;2023-05-10T02:24:22;7.28;;;5.38;;
62696;SDS011;48761;42.680;23.312;2023-05-10T02:26:49;11.43;;;6.15;;
62696;SDS011;48761;42.680;23.312;2023-05-10T02:29:19;5.63;;;4.15;;
62696;SDS011;48761;42.680;23.312;2023-05-10T02:31:46;8.07;;;4.82;;
62696;SDS011;48761;42.680;23.312;2023-05-10T02:34:12;10.43;;;4.80;;
62696;SDS011;48761;42.680;23.312;2023-05-10T02:36:39;8.52;;;5.60;;
62696;SDS011;48761;42.680;23.312;2023-05-10T02:39:07;6.70;;;5.05;;
62696;SDS011;48761;42.680;23.312;2023-05-10T02:41:33;8.77;;;4.95;;
62696;SDS011;48761;42.680;23.312;2023-05-10T02:44:00;9.63;;;5.57;;
62696;SDS011;48761;42.680;23.312;2023-05-10T02:46:28;8.18;;;5.35;;
62696;SDS011;48761;42.680;23.312;2023-05-10T02:48:54;8.50;;;5.35;;
62696;SDS011;48761;42.680;23.312;2023-05-10T02:51:20;5.93;;;4.40;;
62696;SDS011;48761;42.680;23.312;2023-05-10T02:53:50;7.43;;;5.18;;
62696;SDS011;48761;42.680;23.312;2023-05-10T02:56:20;10.55;;;5.75;;
62696;SDS011;48761;42.680;23.312;2023-05-10T02:58:50;9.88;;;6.30;;
62696;SDS011;48761;42.680;23.312;2023-05-10T03:01:17;8.55;;;5.85;;
62696;SDS011;48761;42.680;23.312;2023-05-10T03:03:43;5.88;;;4.95;;
62696;SDS011;48761;42.680;23.312;2023-05-10T03:06:09;7.78;;;5.97;;
62696;SDS011;48761;42.680;23.312;2023-05-10T03:08:35;6.57;;;4.97;;
62696;SDS011;48761;42.680;23.312;2023-05-10T03:13:50;6.55;;;5.13;;
62696;SDS011;48761;42.680;23.312;2023-05-10T03:16:33;7.28;;;6.10;;
62696;SDS011;48761;42.680;23.312;2023-05-10T03:19:08;9.20;;;6.25;;
62696;SDS011;48761;42.680;23.312;2023-05-10T03:21:49;7.30;;;4.97;;
62696;SDS011;48761;42.680;23.312;2023-05-10T03:24:18;9.88;;;5.45;;
62696;SDS011;48761;42.680;23.312;2023-05-10T03:26:47;12.30;;;5.93;;
62696;SDS011;48761;42.680;23.312;2023-05-10T03:29:14;8.27;;;5.82;;
62696;SDS011;48761;42.680;23.312;2023-05-10T03:31:40;8.25;;;6.10;;
62696;SDS011;48761;42.680;23.312;2023-05-10T03:34:07;7.38;;;5.38;;
62696;SDS011;48761;42.680;23.312;2023-05-10T03:36:32;11.48;;;6.35;;
62696;SDS011;48761;42.680;23.312;2023-05-10T03:38:58;10.30;;;6.13;;
62696;SDS011;48761;42.680;23.312;2023-05-10T03:41:24;12.38;;;6.38;;
62696;SDS011;48761;42.680;23.312;2023-05-10T03:43:51;8.40;;;5.28;;
62696;SDS011;48761;42.680;23.312;2023-05-10T03:46:17;7.05;;;4.82;;
62696;SDS011;48761;42.680;23.312;2023-05-10T03:48:43;9.02;;;5.72;;
62696;SDS011;48761;42.680;23.312;2023-05-10T03:51:09;8.77;;;5.90;;
62696;SDS011;48761;42.680;23.312;2023-05-10T03:53:35;9.25;;;6.28;;
62696;SDS011;48761;42.680;23.312;2023-05-10T03:56:00;8.57;;;6.03;;
62696;SDS011;48761;42.680;23.312;2023-05-10T03:58:26;7.88;;;6.35;;
62696;SDS011;48761;42.680;23.312;2023-05-10T04:00:52;7.78;;;6.03;;
62696;SDS011;48761;42.680;23.312;2023-05-10T04:03:19;7.57;;;6.25;;
62696;SDS011;48761;42.680;23.312;2023-05-10T04:05:44;9.75;;;6.43;;
62696;SDS011;48761;42.680;23.312;2023-05-10T04:08:10;10.10;;;6.68;;
62696;SDS011;48761;42.680;23.312;2023-05-10T04:10:36;12.10;;;6.65;;
62696;SDS011;48761;42.680;23.312;2023-05-10T04:13:02;10.95;;;7.15;;
62696;SDS011;48761;42.680;23.312;2023-05-10T04:15:28;11.27;;;7.20;;
62696;SDS011;48761;42.680;23.312;2023-05-10T04:17:54;9.18;;;5.35;;
62696;SDS011;48761;42.680;23.312;2023-05-10T04:20:20;11.23;;;6.80;;
62696;SDS011;48761;42.680;23.312;2023-05-10T04:22:46;7.03;;;5.53;;
62696;SDS011;48761;42.680;23.312;2023-05-10T04:25:12;9.60;;;6.63;;
62696;SDS011;48761;42.680;23.312;2023-05-10T04:27:38;8.82;;;6.47;;
62696;SDS011;48761;42.680;23.312;2023-05-10T04:30:04;9.80;;;6.97;;
62696;SDS011;48761;42.680;23.312;2023-05-10T04:32:31;12.05;;;6.88;;
62696;SDS011;48761;42.680;23.312;2023-05-10T04:34:57;8.90;;;6.70;;
62696;SDS011;48761;42.680;23.312;2023-05-10T04:37:22;11.25;;;7.43;;
62696;SDS011;48761;42.680;23.312;2023-05-10T04:39:48;12.88;;;6.85;;
62696;SDS011;48761;42.680;23.312;2023-05-10T04:42:14;10.60;;;7.28;;
62696;SDS011;48761;42.680;23.312;2023-05-10T04:44:40;9.75;;;7.07;;
62696;SDS011;48761;42.680;23.312;2023-05-10T04:47:06;11.70;;;7.72;;
62696;SDS011;48761;42.680;23.312;2023-05-10T04:49:32;10.77;;;7.70;;
62696;SDS011;48761;42.680;23.312;2023-05-10T04:51:58;10.45;;;7.72;;
62696;SDS011;48761;42.680;23.312;2023-05-10T04:54:24;10.35;;;7.18;;
62696;SDS011;48761;42.680;23.312;2023-05-10T04:56:50;8.57;;;6.93;;
62696;SDS011;48761;42.680;23.312;2023-05-10T04:59:16;12.30;;;7.78;;
62696;SDS011;48761;42.680;23.312;2023-05-10T05:01:42;11.43;;;7.72;;
62696;SDS011;48761;42.680;23.312;2023-05-10T05:04:08;12.38;;;8.40;;
62696;SDS011;48761;42.680;23.312;2023-05-10T05:06:34;10.18;;;7.57;;
62696;SDS011;48761;42.680;23.312;2023-05-10T05:09:00;12.18;;;8.00;;
62696;SDS011;48761;42.680;23.312;2023-05-10T05:11:25;15.15;;;8.65;;
62696;SDS011;48761;42.680;23.312;2023-05-10T05:13:51;12.38;;;7.85;;
62696;SDS011;48761;42.680;23.312;2023-05-10T05:16:17;10.02;;;7.68;;
62696;SDS011;48761;42.680;23.312;2023-05-10T05:18:43;13.13;;;7.82;;
62696;SDS011;48761;42.680;23.312;2023-05-10T05:21:15;12.05;;;8.38;;
62696;SDS011;48761;42.680;23.312;2023-05-10T05:23:42;12.20;;;7.63;;
62696;SDS011;48761;42.680;23.312;2023-05-10T05:26:08;15.25;;;8.80;;
62696;SDS011;48761;42.680;23.312;2023-05-10T05:28:34;12.48;;;8.85;;
62696;SDS011;48761;42.680;23.312;2023-05-10T05:31:00;13.20;;;8.65;;
62696;SDS011;48761;42.680;23.312;2023-05-10T05:33:26;11.98;;;8.55;;
62696;SDS011;48761;42.680;23.312;2023-05-10T05:35:52;11.60;;;8.48;;
62696;SDS011;48761;42.680;23.312;2023-05-10T05:38:17;13.63;;;8.43;;
62696;SDS011;48761;42.680;23.312;2023-05-10T05:40:44;14.35;;;9.00;;
62696;SDS011;48761;42.680;23.312;2023-05-10T05:43:10;14.23;;;9.48;;
62696;SDS011;48761;42.680;23.312;2023-05-10T05:45:36;14.35;;;9.75;;
62696;SDS011;48761;42.680;23.312;2023-05-10T05:48:02;14.93;;;9.77;;
62696;SDS011;48761;42.680;23.312;2023-05-10T05:50:28;15.15;;;9.55;;
62696;SDS011;48761;42.680;23.312;2023-05-10T05:52:54;16.95;;;11.40;;
62696;SDS011;48761;42.680;23.312;2023-05-10T05:55:21;16.50;;;11.50;;
62696;SDS011;48761;42.680;23.312;2023-05-10T05:57:46;16.27;;;11.00;;
62696;SDS011;48761;42.680;23.312;2023-05-10T06:00:12;14.32;;;10.80;;
62696;SDS011;48761;42.680;23.312;2023-05-10T06:02:39;17.13;;;10.68;;
62696;SDS011;48761;42.680;23.312;2023-05-10T06:05:05;21.00;;;10.95;;
62696;SDS011;48761;42.680;23.312;2023-05-10T06:07:31;18.15;;;11.88;;
62696;SDS011;48761;42.680;23.312;2023-05-10T06:09:57;14.38;;;10.88;;
62696;SDS011;48761;42.680;23.312;2023-05-10T06:12:23;18.10;;;11.10;;
62696;SDS011;48761;42.680;23.312;2023-05-10T06:14:49;15.70;;;11.32;;
62696;SDS011;48761;42.680;23.312;2023-05-10T06:17:15;15.48;;;11.02;;
62696;SDS011;48761;42.680;23.312;2023-05-10T06:19:41;17.50;;;11.18;;
62696;SDS011;48761;42.680;23.312;2023-05-10T06:22:07;16.95;;;10.65;;
62696;SDS011;48761;42.680;23.312;2023-05-10T06:24:32;13.63;;;10.90;;
62696;SDS011;48761;42.680;23.312;2023-05-10T06:26:58;13.98;;;9.52;;
62696;SDS011;48761;42.680;23.312;2023-05-10T06:29:24;15.98;;;10.18;;
62696;SDS011;48761;42.680;23.312;2023-05-10T06:31:50;21.70;;;11.75;;
62696;SDS011;48761;42.680;23.312;2023-05-10T06:34:16;15.48;;;10.25;;
62696;SDS011;48761;42.680;23.312;2023-05-10T06:36:42;14.50;;;8.93;;
62696;SDS011;48761;42.680;23.312;2023-05-10T06:39:08;16.63;;;10.88;;
62696;SDS011;48761;42.680;23.312;2023-05-10T06:41:34;15.18;;;10.57;;
62696;SDS011;48761;42.680;23.312;2023-05-10T06:44:00;14.73;;;10.45;;
62696;SDS011;48761;42.680;23.312;2023-05-10T06:46:26;17.58;;;9.75;;
62696;SDS011;48761;42.680;23.312;2023-05-10T06:48:52;14.02;;;10.23;;
62696;SDS011;48761;42.680;23.312;2023-05-10T06:51:18;15.00;;;9.98;;
62696;SDS011;48761;42.680;23.312;2023-05-10T06:53:44;14.52;;;10.40;;
62696;SDS011;48761;42.680;23.312;2023-05-10T06:56:10;12.48;;;8.55;;
62696;SDS011;48761;42.680;23.312;2023-05-10T06:58:36;13.48;;;9.88;;
62696;SDS011;48761;42.680;23.312;2023-05-10T07:01:02;15.07;;;9.27;;
62696;SDS011;48761;42.680;23.312;2023-05-10T07:03:29;13.93;;;9.85;;
62696;SDS011;48761;42.680;23.312;2023-05-10T07:05:59;12.60;;;10.10;;
62696;SDS011;48761;42.680;23.312;2023-05-10T07:08:26;12.27;;;9.32;;
62696;SDS011;48761;42.680;23.312;2023-05-10T07:10:52;16.25;;;10.27;;
62696;SDS011;48761;42.680;23.312;2023-05-10T07:13:18;17.90;;;10.35;;
62696;SDS011;48761;42.680;23.312;2023-05-10T07:15:44;13.90;;;10.57;;
62696;SDS011;48761;42.680;23.312;2023-05-10T07:18:10;15.13;;;10.25;;
62696;SDS011;48761;42.680;23.312;2023-05-10T07:20:36;13.88;;;9.38;;
62696;SDS011;48761;42.680;23.312;2023-05-10T07:23:01;15.43;;;10.13;;
62696;SDS011;48761;42.680;23.312;2023-05-10T07:25:27;13.60;;;9.57;;
62696;SDS011;48761;42.680;23.312;2023-05-10T07:27:53;14.45;;;9.48;;
62696;SDS011;48761;42.680;23.312;2023-05-10T07:30:19;16.10;;;10.23;;
62696;SDS011;48761;42.680;23.312;2023-05-10T07:32:45;15.77;;;10.23;;
62696;SDS011;48761;42.680;23.312;2023-05-10T07:35:11;14.50;;;9.60;;
62696;SDS011;48761;42.680;23.312;2023-05-10T07:37:37;15.50;;;9.93;;
62696;SDS011;48761;42.680;23.312;2023-05-10T07:40:03;16.08;;;8.93;;
62696;SDS011;48761;42.680;23.312;2023-05-10T07:42:29;13.07;;;9.38;;
62696;SDS011;48761;42.680;23.312;2023-05-10T07:44:55;14.48;;;9.75;;
62696;SDS011;48761;42.680;23.312;2023-05-10T07:47:21;15.95;;;10.35;;
62696;SDS011;48761;42.680;23.312;2023-05-10T07:49:47;12.85;;;9.70;;
62696;SDS011;48761;42.680;23.312;2023-05-10T07:52:13;14.95;;;11.25;;
62696;SDS011;48761;42.680;23.312;2023-05-10T07:54:39;16.27;;;11.50;;
62696;SDS011;48761;42.680;23.312;2023-05-10T07:57:05;18.00;;;11.45;;
62696;SDS011;48761;42.680;23.312;2023-05-10T07:59:31;14.02;;;9.85;;
62696;SDS011;48761;42.680;23.312;2023-05-10T08:01:56;16.73;;;11.52;;
62696;SDS011;48761;42.680;23.312;2023-05-10T08:04:22;12.98;;;10.02;;
62696;SDS011;48761;42.680;23.312;2023-05-10T08:06:48;13.85;;;10.10;;
62696;SDS011;48761;42.680;23.312;2023-05-10T08:09:14;15.20;;;11.20;;
62696;SDS011;48761;42.680;23.312;2023-05-10T08:11:41;18.50;;;12.30;;
62696;SDS011;48761;42.680;23.312;2023-05-10T08:14:07;14.77;;;10.95;;
62696;SDS011;48761;42.680;23.312;2023-05-10T08:16:33;14.27;;;10.93;;
62696;SDS011;48761;42.680;23.312;2023-05-10T08:18:59;14.60;;;10.13;;
62696;SDS011;48761;42.680;23.312;2023-05-10T08:21:25;16.17;;;11.30;;
62696;SDS011;48761;42.680;23.312;2023-05-10T08:23:51;16.92;;;10.57;;
62696;SDS011;48761;42.680;23.312;2023-05-10T08:26:17;17.40;;;11.18;;
62696;SDS011;48761;42.680;23.312;2023-05-10T08:28:43;16.17;;;11.73;;
62696;SDS011;48761;42.680;23.312;2023-05-10T08:31:09;17.55;;;11.32;;
62696;SDS011;48761;42.680;23.312;2023-05-10T08:33:35;18.23;;;11.10;;
62696;SDS011;48761;42.680;23.312;2023-05-10T08:36:01;16.92;;;11.93;;
62696;SDS011;48761;42.680;23.312;2023-05-10T08:38:27;16.02;;;10.95;;
62696;SDS011;48761;42.680;23.312;2023-05-10T08:40:53;16.40;;;11.27;;
62696;SDS011;48761;42.680;23.312;2023-05-10T08:43:20;16.60;;;11.73;;
62696;SDS011;48761;42.680;23.312;2023-05-10T08:45:47;16.88;;;11.40;;
62696;SDS011;48761;42.680;23.312;2023-05-10T08:48:15;14.65;;;11.90;;
62696;SDS011;48761;42.680;23.312;2023-05-10T08:50:42;14.73;;;11.35;;
62696;SDS011;48761;42.680;23.312;2023-05-10T08:53:11;21.30;;;12.23;;
62696;SDS011;48761;42.680;23.312;2023-05-10T08:55:39;17.15;;;13.20;;
62696;SDS011;48761;42.680;23.312;2023-05-10T08:58:06;15.65;;;11.38;;
62696;SDS011;48761;42.680;23.312;2023-05-10T09:00:32;16.05;;;12.65;;
62696;SDS011;48761;42.680;23.312;2023-05-10T09:02:59;15.63;;;12.38;;
62696;SDS011;48761;42.680;23.312;2023-05-10T09:05:26;18.35;;;13.73;;
62696;SDS011;48761;42.680;23.312;2023-05-10T09:07:52;22.40;;;15.15;;
62696;SDS011;48761;42.680;23.312;2023-05-10T09:10:18;19.10;;;13.48;;
62696;SDS011;48761;42.680;23.312;2023-05-10T09:12:45;23.80;;;13.63;;
62696;SDS011;48761;42.680;23.312;2023-05-10T09:15:12;21.40;;;13.57;;
62696;SDS011;48761;42.680;23.312;2023-05-10T09:17:41;19.48;;;14.10;;
62696;SDS011;48761;42.680;23.312;2023-05-10T09:20:09;17.05;;;12.88;;
62696;SDS011;48761;42.680;23.312;2023-05-10T09:22:35;18.90;;;13.57;;
62696;SDS011;48761;42.680;23.312;2023-05-10T09:25:11;17.27;;;11.48;;
62696;SDS011;48761;42.680;23.312;2023-05-10T09:27:39;15.27;;;13.07;;
62696;SDS011;48761;42.680;23.312;2023-05-10T09:30:07;18.17;;;13.38;;
62696;SDS011;48761;42.680;23.312;2023-05-10T09:32:40;16.77;;;12.13;;
62696;SDS011;48761;42.680;23.312;2023-05-10T09:37:39;15.10;;;12.47;;
62696;SDS011;48761;42.680;23.312;2023-05-10T09:40:07;16.55;;;12.25;;
62696;SDS011;48761;42.680;23.312;2023-05-10T09:42:36;19.02;;;13.10;;
62696;SDS011;48761;42.680;23.312;2023-05-10T09:45:05;17.52;;;13.50;;
62696;SDS011;48761;42.680;23.312;2023-05-10T09:47:33;15.18;;;12.73;;
62696;SDS011;48761;42.680;23.312;2023-05-10T09:49:59;14.15;;;11.02;;
62696;SDS011;48761;42.680;23.312;2023-05-10T09:52:26;14.77;;;11.20;;
62696;SDS011;48761;42.680;23.312;2023-05-10T09:54:55;14.93;;;10.77;;
62696;SDS011;48761;42.680;23.312;2023-05-10T09:57:21;13.90;;;11.00;;
62696;SDS011;48761;42.680;23.312;2023-05-10T09:59:49;14.40;;;11.13;;
62696;SDS011;48761;42.680;23.312;2023-05-10T10:02:15;15.18;;;10.77;;
62696;SDS011;48761;42.680;23.312;2023-05-10T10:04:41;18.13;;;12.32;;
62696;SDS011;48761;42.680;23.312;2023-05-10T10:07:08;14.90;;;11.35;;
62696;SDS011;48761;42.680;23.312;2023-05-10T10:09:34;14.50;;;10.85;;
62696;SDS011;48761;42.680;23.312;2023-05-10T10:12:01;17.98;;;12.27;;
62696;SDS011;48761;42.680;23.312;2023-05-10T10:14:31;20.17;;;12.23;;
62696;SDS011;48761;42.680;23.312;2023-05-10T10:16:57;16.23;;;11.38;;
62696;SDS011;48761;42.680;23.312;2023-05-10T10:19:26;16.38;;;10.68;;
62696;SDS011;48761;42.680;23.312;2023-05-10T10:21:52;15.00;;;10.98;;
62696;SDS011;48761;42.680;23.312;2023-05-10T10:24:18;12.30;;;9.63;;
62696;SDS011;48761;42.680;23.312;2023-05-10T10:26:44;15.25;;;10.45;;
62696;SDS011;48761;42.680;23.312;2023-05-10T10:29:26;10.77;;;8.82;;
62696;SDS011;48761;42.680;23.312;2023-05-10T10:34:45;13.65;;;10.13;;
62696;SDS011;48761;42.680;23.312;2023-05-10T10:37:11;14.32;;;10.20;;
62696;SDS011;48761;42.680;23.312;2023-05-10T10:39:37;13.07;;;9.98;;
62696;SDS011;48761;42.680;23.312;2023-05-10T10:42:03;11.25;;;8.40;;
62696;SDS011;48761;42.680;23.312;2023-05-10T10:49:31;15.93;;;8.95;;
62696;SDS011;48761;42.680;23.312;2023-05-10T10:52:14;17.50;;;9.27;;
62696;SDS011;48761;42.680;23.312;2023-05-10T10:54:52;13.82;;;9.85;;
62696;SDS011;48761;42.680;23.312;2023-05-10T10:57:19;13.48;;;8.68;;
62696;SDS011;48761;42.680;23.312;2023-05-10T10:59:45;14.02;;;8.75;;
62696;SDS011;48761;42.680;23.312;2023-05-10T11:07:57;16.50;;;9.15;;
62696;SDS011;48761;42.680;23.312;2023-05-10T11:10:25;15.82;;;9.50;;
62696;SDS011;48761;42.680;23.312;2023-05-10T11:13:01;12.30;;;8.90;;
62696;SDS011;48761;42.680;23.312;2023-05-10T11:15:29;15.32;;;8.10;;
62696;SDS011;48761;42.680;23.312;2023-05-10T11:17:58;14.85;;;8.27;;
62696;SDS011;48761;42.680;23.312;2023-05-10T11:20:28;10.57;;;8.32;;
62696;SDS011;48761;42.680;23.312;2023-05-10T11:23:22;13.63;;;8.02;;
62696;SDS011;48761;42.680;23.312;2023-05-10T11:25:48;10.50;;;7.97;;
62696;SDS011;48761;42.680;23.312;2023-05-10T11:28:16;14.98;;;8.23;;
62696;SDS011;48761;42.680;23.312;2023-05-10T11:30:43;11.07;;;7.65;;
62696;SDS011;48761;42.680;23.312;2023-05-10T11:33:14;9.50;;;7.78;;
62696;SDS011;48761;42.680;23.312;2023-05-10T11:35:41;10.73;;;7.75;;
62696;SDS011;48761;42.680;23.312;2023-05-10T11:38:08;9.80;;;7.65;;
62696;SDS011;48761;42.680;23.312;2023-05-10T11:40:35;15.13;;;8.75;;
62696;SDS011;48761;42.680;23.312;2023-05-10T11:43:02;12.20;;;7.80;;
62696;SDS011;48761;42.680;23.312;2023-05-10T11:45:28;10.52;;;8.30;;
62696;SDS011;48761;42.680;23.312;2023-05-10T11:47:57;16.25;;;8.85;;
62696;SDS011;48761;42.680;23.312;2023-05-10T11:50:23;9.98;;;8.10;;
62696;SDS011;48761;42.680;23.312;2023-05-10T11:52:50;17.60;;;8.75;;
62696;SDS011;48761;42.680;23.312;2023-05-10T11:55:20;12.45;;;7.32;;
62696;SDS011;48761;42.680;23.312;2023-05-10T11:57:46;11.48;;;7.72;;
62696;SDS011;48761;42.680;23.312;2023-05-10T12:00:13;14.55;;;8.35;;
62696;SDS011;48761;42.680;23.312;2023-05-10T12:02:39;19.80;;;8.95;;
62696;SDS011;48761;42.680;23.312;2023-05-10T12:05:06;11.93;;;7.95;;
62696;SDS011;48761;42.680;23.312;2023-05-10T12:07:33;12.05;;;8.20;;
62696;SDS011;48761;42.680;23.312;2023-05-10T12:10:06;11.05;;;8.85;;
62696;SDS011;48761;42.680;23.312;2023-05-10T12:12:37;11.57;;;8.57;;
62696;SDS011;48761;42.680;23.312;2023-05-10T12:15:05;11.80;;;8.63;;
62696;SDS011;48761;42.680;23.312;2023-05-10T12:17:36;16.60;;;9.07;;
62696;SDS011;48761;42.680;23.312;2023-05-10T12:20:19;14.45;;;9.95;;
62696;SDS011;48761;42.680;23.312;2023-05-10T12:25:13;15.05;;;8.90;;
62696;SDS011;48761;42.680;23.312;2023-05-10T12:27:39;13.95;;;9.18;;
62696;SDS011;48761;42.680;23.312;2023-05-10T12:30:05;15.55;;;9.13;;
62696;SDS011;48761;42.680;23.312;2023-05-10T12:32:39;11.75;;;9.02;;
62696;SDS011;48761;42.680;23.312;2023-05-10T12:35:09;15.38;;;9.45;;
62696;SDS011;48761;42.680;23.312;2023-05-10T12:37:35;15.00;;;9.00;;
62696;SDS011;48761;42.680;23.312;2023-05-10T12:40:01;12.90;;;9.18;;
62696;SDS011;48761;42.680;23.312;2023-05-10T12:42:27;14.57;;;10.35;;
62696;SDS011;48761;42.680;23.312;2023-05-10T12:44:55;13.02;;;8.35;;
62696;SDS011;48761;42.680;23.312;2023-05-10T12:47:21;17.38;;;9.63;;
62696;SDS011;48761;42.680;23.312;2023-05-10T12:49:47;15.57;;;9.70;;
62696;SDS011;48761;42.680;23.312;2023-05-10T12:52:13;14.45;;;10.02;;
62696;SDS011;48761;42.680;23.312;2023-05-10T12:54:39;17.98;;;10.93;;
62696;SDS011;48761;42.680;23.312;2023-05-10T12:57:05;14.52;;;10.18;;
62696;SDS011;48761;42.680;23.312;2023-05-10T12:59:31;17.98;;;8.95;;
62696;SDS011;48761;42.680;23.312;2023-05-10T13:01:57;13.77;;;9.60;;
62696;SDS011;48761;42.680;23.312;2023-05-10T13:04:23;16.00;;;10.10;;
62696;SDS011;48761;42.680;23.312;2023-05-10T13:06:49;13.13;;;9.90;;
62696;SDS011;48761;42.680;23.312;2023-05-10T13:09:15;12.90;;;9.95;;
62696;SDS011;48761;42.680;23.312;2023-05-10T13:11:41;12.70;;;10.38;;
62696;SDS011;48761;42.680;23.312;2023-05-10T13:14:07;18.48;;;10.38;;
62696;SDS011;48761;42.680;23.312;2023-05-10T13:16:33;15.85;;;10.23;;
62696;SDS011;48761;42.680;23.312;2023-05-10T13:18:59;13.32;;;9.30;;
62696;SDS011;48761;42.680;23.312;2023-05-10T13:21:25;14.82;;;10.85;;
62696;SDS011;48761;42.680;23.312;2023-05-10T13:23:51;15.55;;;10.48;;
62696;SDS011;48761;42.680;23.312;2023-05-10T13:26:16;13.07;;;10.23;;
62696;SDS011;48761;42.680;23.312;2023-05-10T13:28:43;13.60;;;9.00;;
62696;SDS011;48761;42.680;23.312;2023-05-10T13:31:09;17.38;;;9.50;;
62696;SDS011;48761;42.680;23.312;2023-05-10T13:33:35;16.52;;;10.90;;
62696;SDS011;48761;42.680;23.312;2023-05-10T13:36:01;18.65;;;9.25;;
62696;SDS011;48761;42.680;23.312;2023-05-10T13:38:27;12.70;;;7.95;;
62696;SDS011;48761;42.680;23.312;2023-05-10T13:40:52;16.42;;;8.85;;
62696;SDS011;48761;42.680;23.312;2023-05-10T13:43:18;15.77;;;8.10;;
62696;SDS011;48761;42.680;23.312;2023-05-10T13:45:45;16.50;;;8.32;;
62696;SDS011;48761;42.680;23.312;2023-05-10T13:48:10;10.35;;;7.70;;
62696;SDS011;48761;42.680;23.312;2023-05-10T13:50:36;12.73;;;7.90;;
62696;SDS011;48761;42.680;23.312;2023-05-10T13:53:02;12.85;;;7.72;;
62696;SDS011;48761;42.680;23.312;2023-05-10T13:58:32;15.88;;;9.75;;
62696;SDS011;48761;42.680;23.312;2023-05-10T14:01:01;13.25;;;9.85;;
62696;SDS011;48761;42.680;23.312;2023-05-10T14:03:27;13.52;;;9.68;;
62696;SDS011;48761;42.680;23.312;2023-05-10T14:05:53;17.42;;;9.40;;
62696;SDS011;48761;42.680;23.312;2023-05-10T14:08:19;13.02;;;9.65;;
62696;SDS011;48761;42.680;23.312;2023-05-10T14:10:45;14.07;;;10.20;;
62696;SDS011;48761;42.680;23.312;2023-05-10T14:13:11;11.43;;;9.35;;
62696;SDS011;48761;42.680;23.312;2023-05-10T14:15:37;13.98;;;9.73;;
62696;SDS011;48761;42.680;23.312;2023-05-10T14:18:03;13.25;;;8.68;;
62696;SDS011;48761;42.680;23.312;2023-05-10T14:20:29;13.18;;;8.48;;
62696;SDS011;48761;42.680;23.312;2023-05-10T14:22:55;10.55;;;8.45;;
62696;SDS011;48761;42.680;23.312;2023-05-10T14:25:21;14.75;;;9.27;;
62696;SDS011;48761;42.680;23.312;2023-05-10T14:27:47;11.23;;;8.20;;
62696;SDS011;48761;42.680;23.312;2023-05-10T14:30:13;15.43;;;8.75;;
62696;SDS011;48761;42.680;23.312;2023-05-10T14:32:39;15.27;;;9.52;;
62696;SDS011;48761;42.680;23.312;2023-05-10T14:35:05;12.32;;;10.00;;
62696;SDS011;48761;42.680;23.312;2023-05-10T14:37:31;18.23;;;9.82;;
62696;SDS011;48761;42.680;23.312;2023-05-10T14:39:57;14.55;;;9.20;;
62696;SDS011;48761;42.680;23.312;2023-05-10T14:42:23;13.43;;;9.20;;
62696;SDS011;48761;42.680;23.312;2023-05-10T14:44:49;11.75;;;9.32;;
62696;SDS011;48761;42.680;23.312;2023-05-10T14:47:15;12.80;;;9.65;;
62696;SDS011;48761;42.680;23.312;2023-05-10T14:49:41;12.40;;;9.45;;
62696;SDS011;48761;42.680;23.312;2023-05-10T14:55:12;15.60;;;9.70;;
62696;SDS011;48761;42.680;23.312;2023-05-10T14:57:38;12.73;;;9.80;;
62696;SDS011;48761;42.680;23.312;2023-05-10T15:00:04;16.00;;;9.88;;